Terminal Aerodrome Forecast
Issued by NWS Quad Cities IA IL

Home | Current Version | Previous Version | Text Only | Print | Product List | Glossary On
Versions: 1 2 3 4 5 6 7 8 9 10 11 12 13 14 15 16 17 18 19
000
FTUS43 KDVN 041729
TAFDBQ
TAF
KDBQ 041729Z 0418/0518 04006KT P6SM SCT025
      TEMPO 0418/0422 BKN025
     FM050300 08008KT P6SM -SHRA VCTS BKN050CB
      TEMPO 0504/0508 2SM TSRA BKN025CB
     FM050800 09007KT 3SM SHRA OVC015
     FM051500 11010KT 5SM BR VCSH OVC020=

USA.gov is the U.S. government's official web portal to all federal, state and local government web resources and services.